Aérodrome :
LOGIN :

S'inscrire | Disclaimer

   EN    FR    IT 

 










Légende :    VFR   VFR Marginal   IFR   IFR Intensif   IFR Très Intensif
Visi : 
Plafond : 
>= 8 km
>= 3000ft
5 à 8 km
1000 à 3000 ft
1500m à 5 km
500 à 1000 ft
800 à 1500m
200 à 500 ft
< 800m
< 200 ft
Symboles :   Orages  Brouillard  Fortes neiges  Fortes précipitations  Vent > 20 kt
SIGMETs :   Divers  Orages  Givrage  Turbulence  Onde Orograph.  Cendres Volcan.






- Altitude de l'aérodrome : 1470 ft
- Code IATA : KLU


LOWK - Klagenfurt

DERNIER METAR :
  • 141020Z 30007KT 240V340 9999 FEW045 SCT065 BKN085 07/M08 Q1022 NOSIG

METARs EXPIRÉS :
  • 140950Z 30006KT 210V360 9999 FEW045 BKN065 07/M08 Q1022 NOSIG
  • 140920Z 28006KT 230V320 9999 FEW045 BKN060 07/M05 Q1023 TEMPO 35010KT
  • 140850Z 24006KT 180V310 9999 SCT060 06/M04 Q1023 TEMPO 35010KT
  • 140820Z 23007KT 190V260 9999 SCT060 06/M04 Q1023 TEMPO 35010KT
  • 140750Z 23006KT 180V280 9999 SCT060 05/M02 Q1023 TEMPO 35010KT

TAF TAF LOWK
Valide du 14 à 06h jusqu'au 15 à 06h UTC


140515Z 1406/1506 32007KT 9999 FEW060 SCT080 TX08/1415Z TNM02/1504Z
TEMPO 1410/1417 36015G25KT



MET'MAP, la Météo Aéronautique d'un coup d'oeil ! - Copyright ORBIFLY Décembre 2007 - Disclaimer

ORBIFLY MET'MAP TEAM :

Programmation & Développement : Alexandra Zaïnal
Sur une idée originale de : Baudouin d'Aumeries
Assistance à la programmation : Marc-Olivier Méhu
Soutien technique & logistique : Manuel Goepfert

Contact : metmap@orbifly.com




SOURCES & CREDITS :

   NOAA